sensor_id;sensor_type;location;lat;lon;timestamp;pressure;altitude;pressure_sealevel;temperature
78669;BMP280;67984;45.118;20.724;2023-03-01T00:01:55;101408.94;;;4.62
78669;BMP280;67984;45.118;20.724;2023-03-01T00:11:56;101406.06;;;4.63
78669;BMP280;67984;45.118;20.724;2023-03-01T00:21:56;101410.47;;;4.63
78669;BMP280;67984;45.118;20.724;2023-03-01T00:31:57;101404.53;;;4.62
78669;BMP280;67984;45.118;20.724;2023-03-01T00:41:58;101407.41;;;4.61
78669;BMP280;67984;45.118;20.724;2023-03-01T00:51:58;101397.22;;;4.56
78669;BMP280;67984;45.118;20.724;2023-03-01T01:01:59;101373.94;;;4.56
78669;BMP280;67984;45.118;20.724;2023-03-01T01:12:00;101366.50;;;4.54
78669;BMP280;67984;45.118;20.724;2023-03-01T01:22:00;101365.16;;;4.57
78669;BMP280;67984;45.118;20.724;2023-03-01T01:32:01;101353.44;;;4.59
78669;BMP280;67984;45.118;20.724;2023-03-01T01:42:02;101343.88;;;4.60
78669;BMP280;67984;45.118;20.724;2023-03-01T01:52:09;101340.25;;;4.61
78669;BMP280;67984;45.118;20.724;2023-03-01T02:02:11;101324.16;;;4.64
78669;BMP280;67984;45.118;20.724;2023-03-01T02:12:14;101317.56;;;4.66
78669;BMP280;67984;45.118;20.724;2023-03-01T02:22:29;101300.22;;;4.67
78669;BMP280;67984;45.118;20.724;2023-03-01T02:32:30;101293.13;;;4.64
78669;BMP280;67984;45.118;20.724;2023-03-01T02:42:36;101287.78;;;4.60
78669;BMP280;67984;45.118;20.724;2023-03-01T02:52:47;101290.22;;;4.65
78669;BMP280;67984;45.118;20.724;2023-03-01T03:02:54;101282.78;;;4.64
78669;BMP280;67984;45.118;20.724;2023-03-01T03:13:03;101278.06;;;4.66
78669;BMP280;67984;45.118;20.724;2023-03-01T03:23:04;101289.31;;;4.61
78669;BMP280;67984;45.118;20.724;2023-03-01T03:33:06;101276.38;;;4.61
78669;BMP280;67984;45.118;20.724;2023-03-01T03:43:21;101264.06;;;4.58
78669;BMP280;67984;45.118;20.724;2023-03-01T03:53:23;101266.22;;;4.65
78669;BMP280;67984;45.118;20.724;2023-03-01T04:03:26;101255.25;;;4.59
78669;BMP280;67984;45.118;20.724;2023-03-01T04:13:27;101248.75;;;4.62
78669;BMP280;67984;45.118;20.724;2023-03-01T04:23:28;101239.94;;;4.63
78669;BMP280;67984;45.118;20.724;2023-03-01T04:33:28;101238.69;;;4.69
78669;BMP280;67984;45.118;20.724;2023-03-01T04:43:29;101244.63;;;4.78
78669;BMP280;67984;45.118;20.724;2023-03-01T04:53:30;101237.44;;;4.83
78669;BMP280;67984;45.118;20.724;2023-03-01T05:03:31;101243.22;;;4.89
78669;BMP280;67984;45.118;20.724;2023-03-01T05:13:31;101246.13;;;4.87
78669;BMP280;67984;45.118;20.724;2023-03-01T05:23:33;101251.28;;;4.96
78669;BMP280;67984;45.118;20.724;2023-03-01T05:33:40;101246.59;;;4.98
78669;BMP280;67984;45.118;20.724;2023-03-01T05:43:41;101244.75;;;4.90
78669;BMP280;67984;45.118;20.724;2023-03-01T05:53:43;101240.34;;;4.99
78669;BMP280;67984;45.118;20.724;2023-03-01T06:03:44;101247.63;;;5.14
78669;BMP280;67984;45.118;20.724;2023-03-01T06:13:45;101242.69;;;5.29
78669;BMP280;67984;45.118;20.724;2023-03-01T06:23:46;101259.03;;;5.50
78669;BMP280;67984;45.118;20.724;2023-03-01T06:33:47;101253.94;;;5.70
78669;BMP280;67984;45.118;20.724;2023-03-01T06:43:48;101260.09;;;5.86
78669;BMP280;67984;45.118;20.724;2023-03-01T06:53:50;101266.13;;;5.99
78669;BMP280;67984;45.118;20.724;2023-03-01T07:03:51;101274.84;;;6.14
78669;BMP280;67984;45.118;20.724;2023-03-01T07:13:52;101269.22;;;6.12
78669;BMP280;67984;45.118;20.724;2023-03-01T07:23:52;101264.63;;;6.18
78669;BMP280;67984;45.118;20.724;2023-03-01T07:33:54;101262.44;;;6.20
78669;BMP280;67984;45.118;20.724;2023-03-01T07:43:55;101256.28;;;6.33
78669;BMP280;67984;45.118;20.724;2023-03-01T07:53:55;101264.84;;;6.45
78669;BMP280;67984;45.118;20.724;2023-03-01T08:03:56;101263.84;;;6.58
78669;BMP280;67984;45.118;20.724;2023-03-01T08:13:57;101263.72;;;6.75
78669;BMP280;67984;45.118;20.724;2023-03-01T08:23:57;101252.41;;;6.91
78669;BMP280;67984;45.118;20.724;2023-03-01T08:34:00;101259.34;;;6.99
78669;BMP280;67984;45.118;20.724;2023-03-01T08:44:02;101253.31;;;7.19
78669;BMP280;67984;45.118;20.724;2023-03-01T08:54:11;101250.00;;;7.43
78669;BMP280;67984;45.118;20.724;2023-03-01T09:04:14;101229.19;;;7.66
78669;BMP280;67984;45.118;20.724;2023-03-01T09:14:15;101227.81;;;8.08
78669;BMP280;67984;45.118;20.724;2023-03-01T09:24:15;101219.31;;;8.50
78669;BMP280;67984;45.118;20.724;2023-03-01T09:34:16;101227.91;;;8.97
78669;BMP280;67984;45.118;20.724;2023-03-01T09:44:27;101229.31;;;9.41
78669;BMP280;67984;45.118;20.724;2023-03-01T09:54:30;101233.88;;;9.63
78669;BMP280;67984;45.118;20.724;2023-03-01T10:04:51;101216.81;;;10.03
78669;BMP280;67984;45.118;20.724;2023-03-01T10:25:02;101188.13;;;9.84
78669;BMP280;67984;45.118;20.724;2023-03-01T10:35:19;101153.63;;;9.34
78669;BMP280;67984;45.118;20.724;2023-03-01T10:45:34;101140.06;;;9.44
78669;BMP280;67984;45.118;20.724;2023-03-01T10:55:39;101126.09;;;9.52
78669;BMP280;67984;45.118;20.724;2023-03-01T11:16:07;101099.19;;;10.78
78669;BMP280;67984;45.118;20.724;2023-03-01T11:26:12;101090.22;;;11.05
78669;BMP280;67984;45.118;20.724;2023-03-01T11:46:50;101073.66;;;10.91
78669;BMP280;67984;45.118;20.724;2023-03-01T12:07:26;101052.19;;;11.40
78669;BMP280;67984;45.118;20.724;2023-03-01T12:17:46;101053.94;;;11.29
78669;BMP280;67984;45.118;20.724;2023-03-01T12:28:09;101027.72;;;11.19
78669;BMP280;67984;45.118;20.724;2023-03-01T12:38:33;101026.59;;;11.56
78669;BMP280;67984;45.118;20.724;2023-03-01T13:19:57;100992.97;;;11.55
78669;BMP280;67984;45.118;20.724;2023-03-01T13:29:59;100985.53;;;11.17
78669;BMP280;67984;45.118;20.724;2023-03-01T13:50:27;100954.66;;;10.90
78669;BMP280;67984;45.118;20.724;2023-03-01T14:00:39;100950.13;;;10.83
78669;BMP280;67984;45.118;20.724;2023-03-01T14:20:49;100938.34;;;10.67
78669;BMP280;67984;45.118;20.724;2023-03-01T14:30:57;100936.94;;;10.73
78669;BMP280;67984;45.118;20.724;2023-03-01T14:41:01;100923.31;;;10.90
78669;BMP280;67984;45.118;20.724;2023-03-01T14:51:05;100926.47;;;11.05
78669;BMP280;67984;45.118;20.724;2023-03-01T15:01:06;100912.47;;;10.88
78669;BMP280;67984;45.118;20.724;2023-03-01T15:11:24;100903.41;;;10.75
78669;BMP280;67984;45.118;20.724;2023-03-01T15:21:34;100907.72;;;10.60
78669;BMP280;67984;45.118;20.724;2023-03-01T15:32:05;100902.88;;;10.33
78669;BMP280;67984;45.118;20.724;2023-03-01T15:42:11;100907.38;;;10.07
78669;BMP280;67984;45.118;20.724;2023-03-01T15:52:32;100908.25;;;9.88
78669;BMP280;67984;45.118;20.724;2023-03-01T16:02:37;100898.06;;;9.80
78669;BMP280;67984;45.118;20.724;2023-03-01T16:12:38;100912.31;;;9.63
78669;BMP280;67984;45.118;20.724;2023-03-01T16:22:39;100906.94;;;9.53
78669;BMP280;67984;45.118;20.724;2023-03-01T16:32:42;100910.13;;;9.43
78669;BMP280;67984;45.118;20.724;2023-03-01T16:43:02;100926.63;;;9.28
78669;BMP280;67984;45.118;20.724;2023-03-01T16:53:03;100932.72;;;9.17
78669;BMP280;67984;45.118;20.724;2023-03-01T17:03:03;100933.56;;;9.02
78669;BMP280;67984;45.118;20.724;2023-03-01T17:13:04;100935.41;;;8.83
78669;BMP280;67984;45.118;20.724;2023-03-01T17:23:05;100921.38;;;8.68
78669;BMP280;67984;45.118;20.724;2023-03-01T17:33:05;100927.28;;;8.50
78669;BMP280;67984;45.118;20.724;2023-03-01T17:43:07;100894.63;;;8.15
78669;BMP280;67984;45.118;20.724;2023-03-01T17:53:08;100924.75;;;8.19
78669;BMP280;67984;45.118;20.724;2023-03-01T18:03:09;100925.81;;;8.15
78669;BMP280;67984;45.118;20.724;2023-03-01T18:13:10;100937.69;;;8.16
78669;BMP280;67984;45.118;20.724;2023-03-01T18:23:14;100929.88;;;8.16
78669;BMP280;67984;45.118;20.724;2023-03-01T18:33:15;100946.59;;;8.15
78669;BMP280;67984;45.118;20.724;2023-03-01T18:43:16;100951.72;;;8.11
78669;BMP280;67984;45.118;20.724;2023-03-01T18:53:16;100948.19;;;8.04
78669;BMP280;67984;45.118;20.724;2023-03-01T19:03:17;100951.47;;;8.01
78669;BMP280;67984;45.118;20.724;2023-03-01T19:13:18;100959.31;;;8.04
78669;BMP280;67984;45.118;20.724;2023-03-01T19:23:18;100956.66;;;8.01
78669;BMP280;67984;45.118;20.724;2023-03-01T19:33:19;100948.78;;;7.97
78669;BMP280;67984;45.118;20.724;2023-03-01T19:43:20;100964.94;;;7.91
78669;BMP280;67984;45.118;20.724;2023-03-01T19:53:21;100956.91;;;7.80
78669;BMP280;67984;45.118;20.724;2023-03-01T20:03:22;100961.84;;;7.70
78669;BMP280;67984;45.118;20.724;2023-03-01T20:13:23;100969.19;;;7.68
78669;BMP280;67984;45.118;20.724;2023-03-01T20:23:24;100976.66;;;7.69
78669;BMP280;67984;45.118;20.724;2023-03-01T20:33:25;100979.69;;;7.71
78669;BMP280;67984;45.118;20.724;2023-03-01T20:43:26;100969.41;;;7.63
78669;BMP280;67984;45.118;20.724;2023-03-01T20:53:27;100967.50;;;7.60
78669;BMP280;67984;45.118;20.724;2023-03-01T21:03:28;100969.03;;;7.61
78669;BMP280;67984;45.118;20.724;2023-03-01T21:13:30;100968.69;;;7.62
78669;BMP280;67984;45.118;20.724;2023-03-01T21:23:33;100973.13;;;7.62
78669;BMP280;67984;45.118;20.724;2023-03-01T21:33:38;100970.09;;;7.60
78669;BMP280;67984;45.118;20.724;2023-03-01T21:43:40;100963.09;;;7.60
78669;BMP280;67984;45.118;20.724;2023-03-01T21:53:42;100956.38;;;7.59
78669;BMP280;67984;45.118;20.724;2023-03-01T22:03:44;100954.09;;;7.58
78669;BMP280;67984;45.118;20.724;2023-03-01T22:13:46;100947.81;;;7.59
78669;BMP280;67984;45.118;20.724;2023-03-01T22:23:50;100937.59;;;7.51
78669;BMP280;67984;45.118;20.724;2023-03-01T22:33:52;100930.06;;;7.46
78669;BMP280;67984;45.118;20.724;2023-03-01T22:43:53;100923.91;;;7.38
78669;BMP280;67984;45.118;20.724;2023-03-01T22:53:54;100913.00;;;7.33
78669;BMP280;67984;45.118;20.724;2023-03-01T23:03:56;100923.66;;;7.28
78669;BMP280;67984;45.118;20.724;2023-03-01T23:13:58;100921.19;;;7.19
78669;BMP280;67984;45.118;20.724;2023-03-01T23:23:59;100918.59;;;7.19
78669;BMP280;67984;45.118;20.724;2023-03-01T23:34:00;100913.06;;;7.21
78669;BMP280;67984;45.118;20.724;2023-03-01T23:44:02;100906.91;;;7.25
78669;BMP280;67984;45.118;20.724;2023-03-01T23:54:03;100899.75;;;7.22
